Time;durP1;ratioP1;P1;durP2;ratioP2;P2;SDS_P1;SDS_P2;PMS_P1;PMS_P2;Temp;Humidity;BMP_temperature;BMP_pressure;BME280_temperature;BME280_humidity;BME280_pressure;Samples;Min_cycle;Max_cycle;Signal;HPM_P1;HPM_P2
2024/01/20 00:02:04;;;;;;;5.45;3.92;;;21.20;25.10;;;;;;5052466;28;20207;-51
2024/01/20 00:04:33;;;;;;;6.47;3.80;;;21.30;25.10;;;;;;5052129;28;20211;-50
2024/01/20 00:07:00;;;;;;;5.50;4.03;;;21.30;25.10;;;;;;5051717;28;20725;-52
2024/01/20 00:09:26;;;;;;;5.55;3.90;;;21.30;25.10;;;;;;5051989;28;20322;-54
2024/01/20 00:11:53;;;;;;;4.90;3.45;;;21.30;25.10;;;;;;5051907;28;20653;-53
2024/01/20 00:14:20;;;;;;;5.03;3.78;;;21.30;25.10;;;;;;5052220;28;20920;-54
2024/01/20 00:16:47;;;;;;;4.68;3.45;;;21.30;25.10;;;;;;5051866;28;20675;-53
2024/01/20 00:19:14;;;;;;;4.85;3.60;;;21.30;25.10;;;;;;5052120;28;20242;-55
2024/01/20 00:21:42;;;;;;;4.82;3.45;;;21.30;25.10;;;;;;5052165;28;20645;-54
2024/01/20 00:24:09;;;;;;;4.80;3.42;;;21.30;25.00;;;;;;5052151;28;20229;-53
2024/01/20 00:26:36;;;;;;;5.00;3.50;;;21.20;25.00;;;;;;5051314;28;20277;-55
2024/01/20 00:29:03;;;;;;;4.65;3.30;;;21.30;25.10;;;;;;5052202;28;20211;-53
2024/01/20 00:31:30;;;;;;;5.57;3.88;;;21.30;25.00;;;;;;5051761;28;20215;-53
2024/01/20 00:33:57;;;;;;;4.90;3.35;;;21.30;25.00;;;;;;5051820;28;20302;-52
2024/01/20 00:36:24;;;;;;;4.47;3.58;;;21.30;25.00;;;;;;5051407;28;20691;-53
2024/01/20 00:38:52;;;;;;;4.32;3.45;;;21.20;25.00;;;;;;5052140;28;20217;-53
2024/01/20 00:41:19;;;;;;;4.93;3.60;;;21.20;24.90;;;;;;5052982;28;20194;-54
2024/01/20 00:43:46;;;;;;;4.05;3.13;;;21.20;24.90;;;;;;5051953;28;20221;-53
2024/01/20 00:46:13;;;;;;;3.90;3.08;;;21.20;24.90;;;;;;5051710;28;20382;-52
2024/01/20 00:48:40;;;;;;;6.22;3.90;;;21.20;25.00;;;;;;5031318;28;20251;-50
2024/01/20 00:51:07;;;;;;;6.13;3.95;;;21.20;24.90;;;;;;5031859;28;20303;-51
2024/01/20 00:53:34;;;;;;;4.55;3.35;;;21.20;24.90;;;;;;5050969;28;20230;-53
2024/01/20 00:56:02;;;;;;;5.03;3.70;;;21.30;25.00;;;;;;5051220;28;20187;-54
2024/01/20 00:58:29;;;;;;;4.60;3.33;;;21.20;24.90;;;;;;5051490;28;20306;-53
2024/01/20 01:00:56;;;;;;;5.55;3.72;;;21.20;24.90;;;;;;5051731;28;20297;-54
2024/01/20 01:03:23;;;;;;;4.45;3.00;;;21.20;24.90;;;;;;5051346;28;20318;-50
2024/01/20 01:05:50;;;;;;;4.45;3.20;;;21.20;24.90;;;;;;5045784;28;20283;-55
2024/01/20 01:08:17;;;;;;;5.65;3.80;;;21.20;24.90;;;;;;5051467;28;20612;-55
2024/01/20 01:10:44;;;;;;;6.22;3.53;;;21.20;24.90;;;;;;5051781;28;20258;-53
2024/01/20 01:13:12;;;;;;;3.67;3.28;;;21.20;24.90;;;;;;5061829;28;20184;-53
2024/01/20 01:15:39;;;;;;;5.03;3.38;;;21.20;24.90;;;;;;5051238;28;20282;-52
2024/01/20 01:18:06;;;;;;;3.95;3.55;;;21.20;24.90;;;;;;5051101;28;20187;-54
2024/01/20 01:20:33;;;;;;;4.57;3.25;;;21.20;24.80;;;;;;5051356;28;20237;-54
2024/01/20 01:23:00;;;;;;;5.00;3.38;;;21.20;24.90;;;;;;5051533;28;20238;-55
2024/01/20 01:25:27;;;;;;;4.68;3.65;;;21.20;25.40;;;;;;5064430;28;20180;-55
2024/01/20 01:27:54;;;;;;;6.85;3.72;;;21.20;24.90;;;;;;5051325;28;20780;-53
2024/01/20 01:30:22;;;;;;;4.63;3.40;;;21.20;24.90;;;;;;5051487;28;20219;-53
2024/01/20 01:32:49;;;;;;;3.97;3.17;;;21.20;24.80;;;;;;5051110;28;20191;-53
2024/01/20 01:35:16;;;;;;;5.80;3.67;;;21.20;24.80;;;;;;5051284;28;20335;-54
2024/01/20 01:37:43;;;;;;;5.72;3.58;;;21.20;24.80;;;;;;5051361;28;20274;-53
2024/01/20 01:40:12;;;;;;;4.47;3.20;;;21.20;24.90;;;;;;5051075;28;20303;-54
2024/01/20 01:42:39;;;;;;;4.32;3.20;;;21.20;24.80;;;;;;5051195;28;20231;-52
2024/01/20 01:45:07;;;;;;;4.10;3.22;;;21.20;24.80;;;;;;5054019;28;20219;-53
2024/01/20 01:47:36;;;;;;;4.10;2.97;;;21.20;24.80;;;;;;5054639;28;20191;-54
2024/01/20 01:50:03;;;;;;;4.78;3.38;;;21.20;24.80;;;;;;5055194;28;20298;-53
2024/01/20 01:52:32;;;;;;;4.35;3.03;;;21.20;24.80;;;;;;5055133;28;20271;-54
2024/01/20 01:54:59;;;;;;;7.03;3.45;;;21.20;24.80;;;;;;5054687;28;20215;-53
2024/01/20 01:57:28;;;;;;;5.60;3.70;;;21.20;24.80;;;;;;5054913;28;20198;-51
2024/01/20 01:59:56;;;;;;;4.68;3.65;;;21.20;24.80;;;;;;5056930;28;20222;-55
2024/01/20 02:02:23;;;;;;;5.07;3.47;;;21.20;24.80;;;;;;5054996;28;20246;-55
2024/01/20 02:04:51;;;;;;;5.28;3.50;;;21.20;24.80;;;;;;5054827;28;20227;-53
2024/01/20 02:07:19;;;;;;;6.53;3.55;;;21.20;24.80;;;;;;5054628;28;20198;-50
2024/01/20 02:09:46;;;;;;;5.22;3.15;;;21.20;24.80;;;;;;5054214;28;20242;-54
2024/01/20 02:12:14;;;;;;;4.30;3.15;;;21.20;24.70;;;;;;5054421;28;20704;-53
2024/01/20 02:14:42;;;;;;;4.18;3.03;;;21.20;24.80;;;;;;5054935;28;20223;-52
2024/01/20 02:17:09;;;;;;;5.75;3.80;;;21.20;24.80;;;;;;5054047;28;20238;-55
2024/01/20 02:19:40;;;;;;;3.80;3.10;;;21.20;24.70;;;;;;5054826;28;20219;-55
2024/01/20 02:22:12;;;;;;;5.18;3.60;;;21.20;24.70;;;;;;5054291;28;20198;-51
2024/01/20 02:24:39;;;;;;;4.13;3.63;;;21.20;24.70;;;;;;5054158;28;20250;-54
2024/01/20 02:27:06;;;;;;;5.70;3.45;;;21.20;24.80;;;;;;5054252;28;20196;-54
2024/01/20 02:29:33;;;;;;;4.68;3.47;;;21.20;24.70;;;;;;5054566;28;20657;-52
2024/01/20 02:31:59;;;;;;;3.85;3.00;;;21.20;24.70;;;;;;5053925;28;20299;-50
2024/01/20 02:34:27;;;;;;;4.50;3.22;;;21.20;24.80;;;;;;5052550;28;20254;-54
2024/01/20 02:36:54;;;;;;;4.45;3.28;;;21.20;24.70;;;;;;5053377;28;20692;-52
2024/01/20 02:39:22;;;;;;;4.93;3.22;;;21.20;24.70;;;;;;5054052;28;20219;-52
2024/01/20 02:41:50;;;;;;;4.85;3.40;;;21.20;24.80;;;;;;5054267;28;20194;-55
2024/01/20 02:44:17;;;;;;;4.75;3.28;;;21.20;24.80;;;;;;5054351;28;20222;-52
2024/01/20 02:46:44;;;;;;;4.53;3.08;;;21.20;24.80;;;;;;5053221;28;20187;-53
2024/01/20 02:49:11;;;;;;;6.70;3.28;;;21.20;24.70;;;;;;5054260;28;20302;-54
2024/01/20 02:51:38;;;;;;;4.28;3.35;;;21.20;24.70;;;;;;5053880;28;20204;-53
2024/01/20 02:54:05;;;;;;;4.40;3.53;;;21.20;24.80;;;;;;5053809;28;20218;-55
2024/01/20 02:56:34;;;;;;;4.97;3.40;;;21.20;24.70;;;;;;5053538;28;20180;-52
2024/01/20 02:59:01;;;;;;;4.47;3.13;;;21.20;24.70;;;;;;5053833;28;20227;-55
2024/01/20 03:01:28;;;;;;;4.43;3.40;;;21.20;24.70;;;;;;5059781;28;20223;-56
2024/01/20 03:03:55;;;;;;;4.30;3.15;;;21.20;24.80;;;;;;5053863;28;20648;-52
2024/01/20 03:06:22;;;;;;;5.00;3.53;;;21.20;24.70;;;;;;5053434;28;20180;-55
2024/01/20 03:08:48;;;;;;;4.13;3.33;;;21.20;24.70;;;;;;5053078;28;20242;-55
2024/01/20 03:11:15;;;;;;;5.70;3.10;;;21.20;24.70;;;;;;5053791;28;20219;-55
2024/01/20 03:13:44;;;;;;;5.07;3.42;;;21.20;24.70;;;;;;5053793;28;20218;-56
2024/01/20 03:16:11;;;;;;;4.53;3.10;;;21.20;24.70;;;;;;5052911;28;20283;-54
2024/01/20 03:18:39;;;;;;;5.65;3.28;;;21.20;24.70;;;;;;5053613;28;20258;-56
2024/01/20 03:21:07;;;;;;;12.05;4.18;;;21.20;24.70;;;;;;5053386;28;20242;-53
2024/01/20 03:23:34;;;;;;;3.65;2.92;;;21.20;24.70;;;;;;5053102;28;20223;-55
2024/01/20 03:26:06;;;;;;;4.13;3.00;;;21.20;24.70;;;;;;5052745;28;20717;-54
2024/01/20 03:28:33;;;;;;;4.32;3.28;;;21.20;24.70;;;;;;5053171;28;20223;-55
2024/01/20 03:31:02;;;;;;;3.60;3.05;;;21.20;24.70;;;;;;5052717;28;20294;-54
2024/01/20 03:33:29;;;;;;;4.65;3.33;;;21.20;24.70;;;;;;5053380;28;20257;-55
2024/01/20 03:35:56;;;;;;;4.13;3.08;;;21.20;24.70;;;;;;5052871;28;20564;-55
2024/01/20 03:38:23;;;;;;;4.88;3.22;;;21.20;24.70;;;;;;5052718;28;20606;-54
2024/01/20 03:40:49;;;;;;;4.40;3.17;;;21.20;24.70;;;;;;5052881;28;20271;-55
2024/01/20 03:43:16;;;;;;;4.97;2.97;;;21.20;24.70;;;;;;5053169;28;20192;-53
2024/01/20 03:45:44;;;;;;;4.00;3.20;;;21.20;24.70;;;;;;5052380;28;20191;-56
2024/01/20 03:48:12;;;;;;;4.80;3.40;;;21.20;24.70;;;;;;5053016;28;20230;-55
2024/01/20 03:50:39;;;;;;;5.07;3.63;;;21.20;24.70;;;;;;5053205;28;20222;-54
2024/01/20 03:53:06;;;;;;;4.72;3.03;;;21.20;24.70;;;;;;5052458;28;20196;-54
2024/01/20 03:55:33;;;;;;;3.75;3.08;;;21.20;25.20;;;;;;5052855;28;20223;-54
2024/01/20 03:58:01;;;;;;;4.45;3.15;;;21.20;24.70;;;;;;5052565;28;20274;-56
2024/01/20 04:00:28;;;;;;;3.97;3.03;;;21.20;24.70;;;;;;5058838;28;20297;-55
2024/01/20 04:02:55;;;;;;;4.38;3.00;;;21.20;24.70;;;;;;5055470;28;20197;-54
2024/01/20 04:05:24;;;;;;;4.97;3.20;;;21.20;24.70;;;;;;5052063;28;20704;-54
2024/01/20 04:07:50;;;;;;;4.53;3.10;;;21.20;24.70;;;;;;5051114;28;20676;-54
2024/01/20 04:10:18;;;;;;;4.93;3.15;;;21.20;24.60;;;;;;5052693;28;20220;-55
2024/01/20 04:12:44;;;;;;;4.95;3.17;;;21.20;24.60;;;;;;5052408;28;20215;-55
2024/01/20 04:15:12;;;;;;;5.97;3.28;;;21.20;24.70;;;;;;5051817;28;20223;-55
2024/01/20 04:17:38;;;;;;;4.18;3.22;;;21.20;24.60;;;;;;5052164;28;20245;-55
2024/01/20 04:20:07;;;;;;;4.82;3.30;;;21.20;24.70;;;;;;5052274;28;20302;-55
2024/01/20 04:22:35;;;;;;;3.63;3.13;;;21.20;24.80;;;;;;5051992;28;20342;-52
2024/01/20 04:25:02;;;;;;;5.53;3.58;;;21.20;24.60;;;;;;5052301;28;20211;-54
2024/01/20 04:27:29;;;;;;;4.28;2.92;;;21.20;24.70;;;;;;5051897;28;20270;-51
2024/01/20 04:29:56;;;;;;;4.22;3.20;;;21.20;24.70;;;;;;5052051;28;20277;-53
2024/01/20 04:32:22;;;;;;;4.32;3.25;;;21.20;24.70;;;;;;5052019;28;20230;-54
2024/01/20 04:34:49;;;;;;;4.70;3.50;;;21.20;24.70;;;;;;5052332;28;20242;-53
2024/01/20 04:37:16;;;;;;;6.60;3.35;;;21.20;24.70;;;;;;5051475;28;20281;-52
2024/01/20 04:39:44;;;;;;;5.35;3.40;;;21.20;24.70;;;;;;5052280;28;20302;-49
2024/01/20 04:42:11;;;;;;;4.93;3.10;;;21.20;24.70;;;;;;5052017;28;20195;-54
2024/01/20 04:44:38;;;;;;;4.35;3.10;;;21.20;24.70;;;;;;5052078;28;20221;-52
2024/01/20 04:47:06;;;;;;;4.80;3.38;;;21.20;24.70;;;;;;5051550;28;20270;-53
2024/01/20 04:49:33;;;;;;;4.55;3.10;;;21.20;24.70;;;;;;5052211;28;20223;-54
2024/01/20 04:52:01;;;;;;;5.78;3.30;;;21.20;24.80;;;;;;5051733;28;20239;-54
2024/01/20 04:54:28;;;;;;;5.65;3.35;;;21.20;24.80;;;;;;5051626;28;20215;-53
2024/01/20 04:56:57;;;;;;;4.10;2.97;;;21.20;24.70;;;;;;5051616;28;20194;-51
2024/01/20 04:59:24;;;;;;;4.82;3.30;;;21.20;24.70;;;;;;5051800;28;20212;-52
2024/01/20 05:01:52;;;;;;;4.50;3.13;;;21.20;24.70;;;;;;5064696;28;20298;-52
2024/01/20 05:04:19;;;;;;;4.05;3.30;;;21.20;24.70;;;;;;5045207;28;20263;-51
2024/01/20 05:06:46;;;;;;;5.07;3.30;;;21.20;24.70;;;;;;5042329;28;20282;-53
2024/01/20 05:09:13;;;;;;;4.72;3.20;;;21.20;24.70;;;;;;5050916;28;20249;-53
2024/01/20 05:11:40;;;;;;;4.40;3.05;;;21.20;24.70;;;;;;5051953;28;20231;-48
2024/01/20 05:14:09;;;;;;;4.03;3.00;;;21.20;24.70;;;;;;5051720;28;20223;-52
2024/01/20 05:16:36;;;;;;;4.57;3.58;;;21.10;24.70;;;;;;5051042;28;20267;-52
2024/01/20 05:19:03;;;;;;;3.95;2.97;;;21.20;24.70;;;;;;5052976;28;20337;-52
2024/01/20 05:21:29;;;;;;;4.03;3.13;;;21.20;24.80;;;;;;5055860;28;20270;-52
2024/01/20 05:23:57;;;;;;;4.53;2.85;;;21.20;24.80;;;;;;5055486;28;20298;-53
2024/01/20 05:26:24;;;;;;;3.75;3.00;;;21.20;24.70;;;;;;5055383;28;20210;-54
2024/01/20 05:28:51;;;;;;;4.32;2.97;;;21.20;24.70;;;;;;5055570;28;20219;-52
2024/01/20 05:31:20;;;;;;;5.20;3.45;;;21.20;24.70;;;;;;5055130;28;20271;-54
2024/01/20 05:33:47;;;;;;;4.57;2.97;;;21.20;24.70;;;;;;5055345;28;20271;-54
2024/01/20 05:36:14;;;;;;;5.00;3.13;;;21.20;24.80;;;;;;5055163;28;20267;-55
2024/01/20 05:38:41;;;;;;;3.33;3.00;;;21.20;24.70;;;;;;5054990;28;20195;-50
2024/01/20 05:41:09;;;;;;;4.22;3.42;;;21.20;24.70;;;;;;5055392;28;20275;-53
2024/01/20 05:43:36;;;;;;;3.90;2.92;;;21.10;24.60;;;;;;5055184;28;20284;-53
2024/01/20 05:46:06;;;;;;;4.55;3.00;;;21.20;24.70;;;;;;5054773;28;20188;-54
2024/01/20 05:48:35;;;;;;;4.15;3.03;;;21.20;24.80;;;;;;5054790;28;20755;-54
2024/01/20 05:51:02;;;;;;;4.35;2.90;;;21.20;24.70;;;;;;5055222;28;20188;-54
2024/01/20 05:53:29;;;;;;;3.58;2.80;;;21.20;24.70;;;;;;5054359;28;20760;-53
2024/01/20 05:55:56;;;;;;;4.45;2.78;;;21.20;24.80;;;;;;5054763;28;20194;-54
2024/01/20 05:58:23;;;;;;;5.15;2.90;;;21.20;24.80;;;;;;5054625;28;20195;-51
2024/01/20 06:00:50;;;;;;;3.72;3.08;;;21.20;24.70;;;;;;5064201;28;20217;-52
2024/01/20 06:03:17;;;;;;;4.30;2.80;;;21.20;24.70;;;;;;5061337;28;20291;-55
2024/01/20 06:05:45;;;;;;;3.22;2.50;;;21.20;24.70;;;;;;5054853;28;20342;-55
2024/01/20 06:08:12;;;;;;;5.97;2.80;;;21.20;24.70;;;;;;5053535;28;20227;-51
2024/01/20 06:10:40;;;;;;;3.92;2.63;;;21.20;24.70;;;;;;5053762;28;20222;-50
2024/01/20 06:13:07;;;;;;;4.78;2.83;;;21.20;24.80;;;;;;5053278;28;20219;-53
2024/01/20 06:15:33;;;;;;;4.20;2.65;;;21.20;24.70;;;;;;5052837;28;20310;-55
2024/01/20 06:18:00;;;;;;;4.57;2.70;;;21.20;24.70;;;;;;5053325;28;20202;-54
2024/01/20 06:20:27;;;;;;;3.75;2.42;;;21.20;24.70;;;;;;5053511;28;20254;-52
2024/01/20 06:22:56;;;;;;;3.33;2.63;;;21.20;25.30;;;;;;5053067;28;20274;-50
2024/01/20 06:25:23;;;;;;;3.83;2.78;;;21.20;24.70;;;;;;5053188;28;20221;-52
2024/01/20 06:27:50;;;;;;;3.88;2.70;;;21.20;24.70;;;;;;5053291;28;20270;-51
2024/01/20 06:30:18;;;;;;;4.03;2.60;;;21.20;24.70;;;;;;5052436;28;20303;-53
2024/01/20 06:32:45;;;;;;;4.13;2.70;;;21.20;24.70;;;;;;5053191;28;20215;-54
2024/01/20 06:35:12;;;;;;;3.20;2.38;;;21.20;24.70;;;;;;5053234;28;20215;-54
2024/01/20 06:37:39;;;;;;;3.88;2.70;;;21.20;24.70;;;;;;5052371;28;20668;-50
2024/01/20 06:40:09;;;;;;;3.28;2.53;;;21.20;24.60;;;;;;5053045;28;20587;-52
2024/01/20 06:42:36;;;;;;;4.43;2.70;;;21.20;24.60;;;;;;5053125;28;20276;-55
2024/01/20 06:45:03;;;;;;;3.67;2.72;;;21.20;25.20;;;;;;5052550;28;20309;-54
2024/01/20 06:47:30;;;;;;;3.33;2.40;;;21.20;24.70;;;;;;5052710;28;20188;-54
2024/01/20 06:49:57;;;;;;;4.13;2.65;;;21.20;24.60;;;;;;5053151;28;20273;-54
2024/01/20 06:52:23;;;;;;;3.88;2.65;;;21.20;24.80;;;;;;5052189;28;20662;-52
2024/01/20 06:54:50;;;;;;;6.63;2.40;;;21.20;24.70;;;;;;5052775;28;20779;-53
2024/01/20 06:57:19;;;;;;;3.97;2.60;;;21.20;24.60;;;;;;5052426;28;20321;-52
2024/01/20 06:59:46;;;;;;;3.40;2.38;;;21.20;24.60;;;;;;5052828;28;20247;-53
2024/01/20 07:02:13;;;;;;;3.83;2.55;;;21.20;24.60;;;;;;5071189;28;20663;-54
2024/01/20 07:04:39;;;;;;;3.45;2.63;;;21.20;24.60;;;;;;5052882;28;20226;-52
2024/01/20 07:07:07;;;;;;;3.20;2.38;;;21.20;24.60;;;;;;5052174;28;20200;-51
2024/01/20 07:09:38;;;;;;;5.10;2.50;;;21.20;24.60;;;;;;4995360;28;1096044;-51
2024/01/20 07:12:06;;;;;;;2.53;2.10;;;21.20;24.60;;;;;;5033646;28;20727;-51
2024/01/20 07:14:35;;;;;;;4.65;3.08;;;21.20;24.60;;;;;;5053299;28;20219;-52
2024/01/20 07:17:02;;;;;;;3.72;2.60;;;21.20;24.60;;;;;;5052751;28;20646;-52
2024/01/20 07:19:29;;;;;;;3.70;2.67;;;21.20;24.60;;;;;;5052976;28;20223;-51
2024/01/20 07:21:57;;;;;;;4.03;2.50;;;21.20;24.70;;;;;;5053116;28;20184;-52
2024/01/20 07:24:24;;;;;;;4.35;2.90;;;21.20;24.70;;;;;;5053252;28;20306;-55
2024/01/20 07:26:51;;;;;;;3.08;2.72;;;21.20;24.70;;;;;;5053230;28;20184;-55
2024/01/20 07:29:17;;;;;;;3.95;2.80;;;21.20;24.70;;;;;;5052748;28;20300;-54
2024/01/20 07:31:46;;;;;;;3.05;2.40;;;21.20;24.60;;;;;;5053343;28;20195;-54
2024/01/20 07:34:13;;;;;;;3.50;2.58;;;21.20;24.60;;;;;;5052742;28;20716;-54
2024/01/20 07:36:39;;;;;;;4.28;2.70;;;21.20;24.70;;;;;;5052641;28;20274;-52
2024/01/20 07:39:06;;;;;;;3.60;2.40;;;21.20;24.70;;;;;;5052975;28;20231;-53
2024/01/20 07:41:33;;;;;;;3.13;2.58;;;21.20;24.70;;;;;;5052126;28;20246;-55
2024/01/20 07:44:01;;;;;;;3.13;2.40;;;21.20;24.60;;;;;;5052530;28;20286;-53
2024/01/20 07:46:28;;;;;;;3.92;2.67;;;21.20;24.60;;;;;;5052763;28;20226;-52
2024/01/20 07:48:56;;;;;;;3.95;2.80;;;21.20;24.60;;;;;;5052968;28;20341;-49
2024/01/20 07:51:23;;;;;;;4.88;2.70;;;21.20;24.60;;;;;;5052636;28;20194;-51
2024/01/20 07:53:50;;;;;;;4.25;2.70;;;21.20;24.60;;;;;;5052427;28;20214;-55
2024/01/20 07:56:17;;;;;;;3.70;2.75;;;21.20;24.50;;;;;;5052612;28;20194;-51
2024/01/20 07:58:44;;;;;;;5.13;2.45;;;21.20;24.60;;;;;;5052514;28;20282;-54
2024/01/20 08:01:11;;;;;;;3.40;2.38;;;21.20;24.60;;;;;;5065077;28;20319;-53
2024/01/20 08:03:37;;;;;;;3.40;2.53;;;21.20;24.60;;;;;;5062565;28;20205;-52
2024/01/20 08:06:07;;;;;;;3.60;2.30;;;21.20;24.60;;;;;;5052369;28;20219;-53
2024/01/20 08:08:35;;;;;;;5.07;2.53;;;21.20;24.60;;;;;;5052103;28;20326;-54
2024/01/20 08:11:01;;;;;;;3.75;2.33;;;21.20;24.60;;;;;;5052892;28;20309;-54
2024/01/20 08:13:28;;;;;;;3.63;2.70;;;21.20;24.60;;;;;;5051580;28;20306;-52
2024/01/20 08:15:55;;;;;;;4.47;2.20;;;21.20;24.70;;;;;;5052175;28;20215;-53
2024/01/20 08:18:22;;;;;;;3.03;2.35;;;21.20;24.70;;;;;;5052265;28;20184;-52
2024/01/20 08:20:49;;;;;;;3.40;2.28;;;21.20;24.70;;;;;;5052063;28;20222;-54
2024/01/20 08:23:17;;;;;;;3.53;2.58;;;21.20;24.80;;;;;;5052109;28;20263;-54
2024/01/20 08:25:44;;;;;;;3.03;2.20;;;21.20;24.70;;;;;;5051883;28;20302;-51
2024/01/20 08:28:12;;;;;;;3.38;2.40;;;21.20;24.80;;;;;;5051623;28;20188;-54
2024/01/20 08:30:39;;;;;;;4.32;2.53;;;21.20;24.80;;;;;;5051970;28;20274;-53
2024/01/20 08:33:05;;;;;;;4.10;2.50;;;21.20;24.80;;;;;;5051952;28;20313;-54
2024/01/20 08:35:32;;;;;;;4.13;2.63;;;21.20;24.80;;;;;;5051502;28;20219;-55
2024/01/20 08:37:59;;;;;;;4.07;2.60;;;21.20;24.80;;;;;;5051475;28;20653;-51
2024/01/20 08:40:28;;;;;;;3.40;2.70;;;21.20;24.70;;;;;;5051905;28;20215;-52
2024/01/20 08:42:55;;;;;;;3.47;2.65;;;21.20;24.70;;;;;;5051205;28;20792;-52
2024/01/20 08:45:22;;;;;;;4.45;2.60;;;21.20;24.70;;;;;;5051679;28;20298;-49
2024/01/20 08:47:49;;;;;;;4.28;2.92;;;21.20;24.70;;;;;;5051557;28;20187;-54
2024/01/20 08:50:16;;;;;;;4.53;2.58;;;21.20;24.80;;;;;;5051683;28;20219;-53
2024/01/20 08:52:43;;;;;;;3.10;2.50;;;21.20;24.70;;;;;;5051673;28;20298;-53
2024/01/20 08:55:10;;;;;;;4.78;2.88;;;21.20;24.80;;;;;;5051549;28;20224;-53
2024/01/20 08:57:38;;;;;;;3.45;2.72;;;21.20;24.70;;;;;;5051335;28;20188;-54
2024/01/20 09:00:07;;;;;;;3.42;2.53;;;21.20;24.70;;;;;;5054901;28;20218;-52
2024/01/20 09:02:34;;;;;;;3.95;2.78;;;21.20;24.80;;;;;;5071829;28;20217;-55
2024/01/20 09:05:01;;;;;;;3.92;2.97;;;21.20;24.70;;;;;;5053478;28;20222;-51
2024/01/20 09:07:28;;;;;;;3.42;2.50;;;21.20;24.80;;;;;;5050693;28;20561;-52
2024/01/20 09:09:56;;;;;;;3.38;2.75;;;21.20;24.70;;;;;;5051445;28;20215;-53
2024/01/20 09:12:23;;;;;;;4.18;3.03;;;21.20;24.80;;;;;;5051401;28;20607;-53
2024/01/20 09:14:52;;;;;;;4.20;3.00;;;21.20;24.70;;;;;;5051368;28;20225;-51
2024/01/20 09:17:18;;;;;;;6.07;3.00;;;21.20;24.70;;;;;;5051468;28;20282;-52
2024/01/20 09:19:45;;;;;;;5.65;2.78;;;21.20;24.80;;;;;;5051260;28;20218;-51
2024/01/20 09:22:12;;;;;;;4.53;2.90;;;21.20;24.80;;;;;;5051428;28;20249;-54
2024/01/20 09:24:39;;;;;;;4.50;3.10;;;21.20;24.80;;;;;;5051420;28;20325;-53
2024/01/20 09:27:06;;;;;;;4.63;3.05;;;21.20;24.80;;;;;;5050910;28;20267;-53
2024/01/20 09:29:33;;;;;;;4.07;2.72;;;21.20;24.80;;;;;;5051156;28;20314;-52
2024/01/20 09:32:01;;;;;;;4.32;2.55;;;21.20;24.80;;;;;;5051187;28;20540;-53
2024/01/20 09:34:28;;;;;;;3.25;2.50;;;21.20;24.80;;;;;;5050853;28;20227;-52
2024/01/20 09:36:55;;;;;;;3.67;2.83;;;21.20;24.90;;;;;;5051348;28;20195;-52
2024/01/20 09:39:22;;;;;;;4.50;2.78;;;21.20;24.90;;;;;;5051271;28;20211;-52
2024/01/20 09:41:50;;;;;;;4.70;2.85;;;21.20;24.80;;;;;;5050795;28;20668;-52
2024/01/20 09:44:17;;;;;;;7.30;3.20;;;21.20;24.80;;;;;;5050917;28;20616;-54
2024/01/20 09:46:44;;;;;;;3.50;2.60;;;21.20;24.80;;;;;;5050476;28;20697;-54
2024/01/20 09:49:13;;;;;;;6.63;2.85;;;21.20;24.80;;;;;;5050831;28;20187;-52
2024/01/20 09:51:46;;;;;;;4.28;2.83;;;21.20;24.90;;;;;;5051004;28;20599;-53
2024/01/20 09:54:15;;;;;;;4.15;2.70;;;21.20;24.80;;;;;;5051133;28;20223;-54
2024/01/20 09:56:42;;;;;;;4.45;3.20;;;21.20;24.80;;;;;;5048944;28;20210;-55
2024/01/20 09:59:10;;;;;;;4.50;2.80;;;21.20;24.80;;;;;;5050825;28;20192;-53
2024/01/20 10:01:38;;;;;;;3.97;2.67;;;21.20;24.90;;;;;;5066725;28;20229;-55
2024/01/20 10:04:08;;;;;;;4.40;2.80;;;21.20;24.80;;;;;;5063815;28;20198;-55
2024/01/20 10:06:36;;;;;;;4.63;2.78;;;21.20;24.90;;;;;;5054323;28;20278;-53
2024/01/20 10:09:03;;;;;;;3.90;2.85;;;21.20;24.90;;;;;;5054164;28;20226;-54
2024/01/20 10:11:30;;;;;;;4.60;2.72;;;21.20;24.80;;;;;;5054252;28;20241;-55
2024/01/20 10:13:57;;;;;;;4.50;2.63;;;21.20;24.90;;;;;;5054656;28;20214;-51
2024/01/20 10:16:24;;;;;;;3.70;2.90;;;21.20;24.90;;;;;;5054388;28;20594;-50
2024/01/20 10:18:51;;;;;;;3.88;2.50;;;21.20;24.90;;;;;;5054322;28;20194;-49
2024/01/20 10:21:19;;;;;;;3.85;2.78;;;21.20;24.90;;;;;;5054719;28;20629;-51
2024/01/20 10:23:47;;;;;;;5.07;2.70;;;21.20;24.90;;;;;;5054427;28;20207;-53
2024/01/20 10:26:14;;;;;;;4.25;2.83;;;21.20;24.90;;;;;;5053755;28;20228;-54
2024/01/20 10:28:41;;;;;;;5.68;2.67;;;21.20;24.90;;;;;;5054664;28;20192;-49
2024/01/20 10:31:09;;;;;;;5.43;2.88;;;21.20;24.90;;;;;;5054690;28;20216;-50
2024/01/20 10:33:36;;;;;;;3.88;2.70;;;21.20;24.90;;;;;;5053792;28;20225;-55
2024/01/20 10:36:04;;;;;;;3.78;2.90;;;21.20;24.90;;;;;;5054273;28;20216;-52
2024/01/20 10:38:37;;;;;;;4.40;2.97;;;21.20;24.90;;;;;;5054365;28;20195;-51
2024/01/20 10:41:08;;;;;;;4.05;3.00;;;21.20;24.90;;;;;;5053919;28;20219;-53
2024/01/20 10:43:39;;;;;;;4.30;3.25;;;21.20;24.90;;;;;;5054072;28;20278;-54
2024/01/20 10:46:12;;;;;;;4.60;2.80;;;21.20;24.90;;;;;;5053662;28;20649;-50
2024/01/20 10:48:46;;;;;;;4.40;2.65;;;21.20;24.90;;;;;;5053722;28;20198;-51
2024/01/20 10:51:19;;;;;;;5.90;3.08;;;21.20;24.90;;;;;;5054170;28;20649;-51
2024/01/20 10:53:49;;;;;;;4.95;3.10;;;21.20;25.00;;;;;;5053692;28;20219;-55
2024/01/20 10:56:18;;;;;;;4.63;2.80;;;21.20;24.90;;;;;;5053255;28;20302;-47
2024/01/20 10:58:51;;;;;;;4.97;2.72;;;21.20;24.90;;;;;;5053788;28;20271;-53
2024/01/20 11:01:20;;;;;;;4.57;2.95;;;21.20;24.90;;;;;;5066919;28;20215;-52
2024/01/20 11:03:47;;;;;;;6.35;3.35;;;21.20;24.90;;;;;;5072622;28;20221;-53
2024/01/20 11:06:19;;;;;;;4.63;3.20;;;21.20;24.90;;;;;;5053572;28;20216;-50
2024/01/20 11:08:50;;;;;;;4.00;2.92;;;21.20;24.90;;;;;;5053323;28;20678;-54
2024/01/20 11:11:19;;;;;;;5.55;3.15;;;21.20;24.90;;;;;;5053189;28;20720;-53
2024/01/20 11:13:46;;;;;;;5.82;2.83;;;21.20;24.90;;;;;;5053386;28;20223;-51
2024/01/20 11:16:20;;;;;;;4.28;2.58;;;21.20;24.90;;;;;;5032426;28;20322;-51
2024/01/20 11:18:47;;;;;;;5.22;2.90;;;21.20;24.90;;;;;;5032893;28;20188;-51
2024/01/20 11:21:16;;;;;;;3.28;2.80;;;21.20;24.90;;;;;;5053308;28;20312;-52
2024/01/20 11:23:46;;;;;;;5.32;2.50;;;21.20;24.80;;;;;;5053377;28;20271;-53
2024/01/20 11:26:13;;;;;;;6.38;2.80;;;21.20;24.90;;;;;;5052983;28;20226;-54
2024/01/20 11:28:47;;;;;;;4.68;2.70;;;21.20;24.80;;;;;;5053324;28;20227;-54
2024/01/20 11:31:20;;;;;;;3.47;2.40;;;21.20;24.80;;;;;;5053059;28;20266;-55
2024/01/20 11:33:47;;;;;;;3.30;2.40;;;21.20;24.90;;;;;;5052500;28;20219;-51
2024/01/20 11:36:15;;;;;;;3.53;2.45;;;21.30;24.90;;;;;;5052771;28;20224;-51
2024/01/20 11:38:44;;;;;;;4.18;2.72;;;21.30;24.90;;;;;;5052899;28;20621;-54
2024/01/20 11:41:12;;;;;;;4.65;2.78;;;21.20;24.90;;;;;;5052695;28;20302;-54
2024/01/20 11:43:46;;;;;;;4.93;2.60;;;21.30;24.90;;;;;;5052721;28;20591;-53
2024/01/20 11:46:14;;;;;;;5.32;2.60;;;21.30;24.90;;;;;;5052615;28;20231;-55
2024/01/20 11:48:42;;;;;;;5.40;2.55;;;21.30;24.90;;;;;;5052482;28;20204;-52
2024/01/20 11:51:09;;;;;;;4.03;2.83;;;21.30;24.90;;;;;;5052825;28;20211;-52
2024/01/20 11:53:36;;;;;;;4.18;2.55;;;21.30;24.90;;;;;;5052609;28;20265;-53
2024/01/20 11:56:03;;;;;;;3.88;2.70;;;21.30;24.90;;;;;;5051714;28;20220;-54
2024/01/20 11:58:31;;;;;;;3.10;2.35;;;21.30;24.90;;;;;;5052550;28;20577;-54
2024/01/20 12:01:01;;;;;;;3.92;2.40;;;21.30;25.40;;;;;;5062690;28;20210;-54
2024/01/20 12:03:28;;;;;;;3.15;2.40;;;21.30;25.40;;;;;;5071891;28;20652;-54
2024/01/20 12:05:55;;;;;;;3.22;2.28;;;21.30;24.80;;;;;;5057047;28;20298;-54
2024/01/20 12:08:22;;;;;;;3.60;2.78;;;21.30;24.80;;;;;;5052247;28;20234;-53
2024/01/20 12:10:50;;;;;;;3.75;2.33;;;21.30;24.70;;;;;;5052151;28;20302;-53
2024/01/20 12:13:17;;;;;;;3.28;2.20;;;21.30;24.80;;;;;;5052192;28;20187;-54
2024/01/20 12:15:47;;;;;;;3.10;2.30;;;21.30;24.70;;;;;;5052013;28;20215;-51
2024/01/20 12:18:17;;;;;;;3.47;2.45;;;21.30;24.70;;;;;;5052055;28;20275;-51
2024/01/20 12:20:44;;;;;;;3.13;2.30;;;21.30;24.70;;;;;;5052375;28;20306;-53
2024/01/20 12:23:16;;;;;;;2.97;2.28;;;21.30;24.70;;;;;;5052422;28;20275;-51
2024/01/20 12:25:43;;;;;;;3.00;2.15;;;21.30;24.70;;;;;;5051020;28;20701;-51
2024/01/20 12:28:10;;;;;;;4.13;2.13;;;21.30;24.70;;;;;;5052004;28;20198;-53
2024/01/20 12:30:37;;;;;;;3.10;2.22;;;21.30;24.70;;;;;;5052004;28;20222;-52
2024/01/20 12:33:05;;;;;;;3.42;1.88;;;21.30;24.70;;;;;;5051766;28;20188;-52
2024/01/20 12:35:33;;;;;;;3.38;2.17;;;21.30;24.60;;;;;;5051551;28;20227;-52
2024/01/20 12:38:00;;;;;;;4.57;2.22;;;21.30;24.60;;;;;;5052024;28;20187;-51
2024/01/20 12:40:29;;;;;;;2.75;2.05;;;21.30;24.60;;;;;;5051456;28;20222;-54
2024/01/20 12:42:56;;;;;;;2.55;2.10;;;21.30;24.60;;;;;;5032547;28;20189;-54
2024/01/20 12:45:23;;;;;;;3.33;2.10;;;21.30;24.60;;;;;;5032464;28;20266;-54
2024/01/20 12:47:50;;;;;;;3.90;2.20;;;21.30;24.60;;;;;;5047490;28;20198;-57